• Join FlightAware (Why Join?)
  • Login
  • US Flag 
03:37AM EDT


 

Airport Tracker/Info


-or-


 

Live Flight TrackerFlight Track Log ✈ N589H ✈ 05-Apr-2014 ✈ KPIE - KAPF

Flight Track Log - Related Links

Times and Time Zones

All times are in EDT time to prevent confusion due to time zone crossing. See the N589H flight status page for this flight to view local times or setup timezone preferences in your user account.

Time Position Orientation Groundspeed Altitude Reporting Facility
EDT Latitude Longitude Course Direction KTS MPH feet Rate Location/Type
08:05AM 27.9000 -82.6833 221° Southwest 147 169 500  Level Tampa TRACON
08:06AM 27.8833 -82.7000 221° Southwest 176 203 1,300 1,560 Climbing Tampa TRACON
08:07AM 27.8500 -82.7667 241° Southwest 207 238 3,200 2,100 Climbing Tampa TRACON
08:07AM 27.8000 -82.7500 164° South 197 227 5,300 2,040 Climbing Tampa TRACON
08:09AM 27.7500 -82.7500 180° South 200 230 7,300 1,680 Climbing Tampa TRACON
08:11AM 27.5989 -82.6744 156° South 250 288 11,400 1,620 Climbing Miami Center
08:12AM 27.5442 -82.6294 144° Southeast 245 282 13,000 780 Climbing Miami Center
08:13AM 27.4750 -82.5839 150° Southeast 259 298 13,000  Level Miami Center
08:14AM 27.3956 -82.5378 153° Southeast 292 336 13,000  Level Miami Center
08:15AM 27.3183 -82.4872 150° Southeast 313 360 13,000  Level Miami Center
08:16AM 27.2386 -82.4392 152° Southeast 325 374 13,000  Level Miami Center
08:17AM 27.1592 -82.3908 152° Southeast 325 374 13,000  Level Miami Center
08:18AM 27.0714 -82.3378 152° Southeast 320 368 13,000 -600 Level Miami Center
08:19AM 27.0083 -82.2975 150° Southeast 320 368 11,800 -1,200 Descending Miami Center
08:20AM 26.9247 -82.2469 152° Southeast 320 368 10,600 -900 Descending Miami Center
08:21AM 26.8533 -82.2019 151° Southeast 310 357 10,000 -300 Descending Miami Center
08:22AM 26.7797 -82.1567 151° Southeast 310 357 10,000  Level Miami Center
08:23AM 26.7064 -82.1114 151° Southeast 303 349 10,000 -660 Level Miami Center
08:24AM 26.6244 -82.0614 151° Southeast 303 349 8,700 -1,200 Descending Miami Center
08:25AM 26.5508 -82.0186 153° Southeast 303 349 7,700 -1,080 Descending Miami Center
08:26AM 26.4817 -81.9739 150° Southeast 298 343 6,600 -1,140 Descending Miami Center
08:27AM 26.4119 -81.9314 151° Southeast 298 343 5,500 -1,500 Descending Miami Center
08:28AM 26.3422 -81.8961 156° South 280 322 3,600 -1,920 Descending Miami Center
08:30AM 26.2641 -81.8404 156° South  Level FlightAware Approximate
08:37AM 26.1500 -81.7667 146° Southeast  Level FlightAware Approximate
08:38AM 26.1524 -81.7756 90° East  Level Estimated
08:39AM 26.1524 -81.7756 146° Southeast  Level Estimated
08:40AM 26.1524 -81.7756 107° East  Level Estimated
08:41AM 26.1524 -81.7756 146° Southeast  Level Estimated